Time;durP1;ratioP1;P1;durP2;ratioP2;P2;SDS_P1;SDS_P2;PMS_P1;PMS_P2;Temp;Humidity;BMP_temperature;BMP_pressure;BME280_temperature;BME280_humidity;BME280_pressure;Samples;Min_cycle;Max_cycle;Signal;HPM_P1;HPM_P2
2022/01/27 00:02:47;;;;;;;31.27;9.27;;;;;;;;;;10425383;28;20109;-77
2022/01/27 00:08:08;;;;;;;43.30;11.60;;;;;;;;;;10426466;28;20045;-77
2022/01/27 00:13:14;;;;;;;21.87;6.90;;;;;;;;;;10439065;28;20036;-77
2022/01/27 00:18:18;;;;;;;43.93;15.00;;;;;;;;;;10423375;28;20444;-77
2022/01/27 00:23:22;;;;;;;34.23;11.57;;;;;;;;;;10424948;28;20083;-78
2022/01/27 00:28:25;;;;;;;33.72;10.05;;;;;;;;;;10414577;28;20045;-80
2022/01/27 00:33:28;;;;;;;43.47;11.57;;;;;;;;;;10426025;28;20048;-78
2022/01/27 00:38:33;;;;;;;17.93;7.10;;;;;;;;;;10422632;28;20037;-77
2022/01/27 00:43:36;;;;;;;;;;;;;;;;;;10418562;28;20068;-78
2022/01/27 00:48:39;;;;;;;16.40;6.20;;;;;;;;;;10407629;28;19991;-78
2022/01/27 00:53:49;;;;;;;22.77;8.70;;;;;;;;;;10419682;28;20056;-77
2022/01/27 00:59:02;;;;;;;22.63;6.93;;;;;;;;;;10416661;28;20149;-77
2022/01/27 01:04:08;;;;;;;30.30;8.63;;;;;;;;;;10402679;28;20455;-78
2022/01/27 01:14:46;;;;;;;40.00;10.33;;;;;;;;;;10423514;28;20033;-78
2022/01/27 01:20:02;;;;;;;15.90;5.40;;;;;;;;;;10430513;28;20107;-79
2022/01/27 01:30:46;;;;;;;20.97;7.37;;;;;;;;;;10426466;28;20034;-78
2022/01/27 01:35:52;;;;;;;36.13;12.40;;;;;;;;;;10441253;28;20052;-78
2022/01/27 01:40:57;;;;;;;34.83;11.17;;;;;;;;;;10456713;28;20065;-78
2022/01/27 01:46:00;;;;;;;29.23;8.17;;;;;;;;;;10415372;28;20041;-80
2022/01/27 01:51:04;;;;;;;15.50;5.57;;;;;;;;;;10418674;28;20056;-79
2022/01/27 01:56:09;;;;;;;28.42;10.82;;;;;;;;;;10407957;28;20541;-79
2022/01/27 02:01:12;;;;;;;25.63;7.80;;;;;;;;;;10424038;28;20514;-79
2022/01/27 02:06:21;;;;;;;40.87;10.87;;;;;;;;;;10423554;28;20060;-81
2022/01/27 02:22:10;;;;;;;23.43;8.03;;;;;;;;;;10445387;28;20034;-77
2022/01/27 02:27:13;;;;;;;47.30;15.10;;;;;;;;;;10423322;28;20037;-77
2022/01/27 02:32:22;;;;;;;28.73;8.80;;;;;;;;;;10411812;28;20054;-78
2022/01/27 02:37:27;;;;;;;27.87;8.47;;;;;;;;;;10425064;28;20060;-78
2022/01/27 02:42:29;;;;;;;;;;;;;;;;;;10427687;28;20147;-77
2022/01/27 02:47:33;;;;;;;33.50;9.50;;;;;;;;;;10425668;28;20048;-79
2022/01/27 02:52:38;;;;;;;48.50;12.87;;;;;;;;;;10423274;28;20083;-78
2022/01/27 02:57:41;;;;;;;16.13;6.17;;;;;;;;;;10427247;28;20029;-78
2022/01/27 03:02:44;;;;;;;32.20;8.97;;;;;;;;;;10437024;28;20142;-79
2022/01/27 03:07:48;;;;;;;46.80;13.70;;;;;;;;;;10438932;28;20033;-78
2022/01/27 03:12:56;;;;;;;19.67;6.50;;;;;;;;;;10408838;28;20042;-77
2022/01/27 03:17:59;;;;;;;40.27;12.53;;;;;;;;;;10406639;28;20042;-80
2022/01/27 03:23:05;;;;;;;27.67;9.47;;;;;;;;;;10425276;28;20049;-79
2022/01/27 03:28:10;;;;;;;45.70;12.27;;;;;;;;;;10421463;28;20254;-80
2022/01/27 03:33:13;;;;;;;46.23;8.53;;;;;;;;;;10404811;28;20041;-79
2022/01/27 03:38:18;;;;;;;31.23;11.20;;;;;;;;;;10404520;28;20045;-77
2022/01/27 03:43:21;;;;;;;11.40;3.50;;;;;;;;;;10395677;28;20464;-78
2022/01/27 03:48:24;;;;;;;31.93;9.60;;;;;;;;;;10411807;28;20033;-78
2022/01/27 03:53:28;;;;;;;43.73;11.07;;;;;;;;;;10414103;28;20053;-80
2022/01/27 03:58:31;;;;;;;42.17;10.83;;;;;;;;;;10411900;28;20041;-81
2022/01/27 04:03:36;;;;;;;25.30;8.10;;;;;;;;;;10413550;28;20045;-79
2022/01/27 04:08:41;;;;;;;33.97;9.27;;;;;;;;;;10413897;28;20097;-79
2022/01/27 04:13:44;;;;;;;30.50;10.77;;;;;;;;;;10417433;28;20037;-80
2022/01/27 04:18:47;;;;;;;19.33;7.47;;;;;;;;;;10415888;28;20049;-80
2022/01/27 04:23:51;;;;;;;51.77;14.40;;;;;;;;;;10413706;28;20091;-79
2022/01/27 04:28:54;;;;;;;10.63;4.70;;;;;;;;;;10419769;28;20044;-81
2022/01/27 04:33:58;;;;;;;18.33;6.37;;;;;;;;;;10410096;28;20045;-81
2022/01/27 04:39:12;;;;;;;21.63;8.40;;;;;;;;;;10400902;28;20136;-80
2022/01/27 04:44:23;;;;;;;12.57;5.03;;;;;;;;;;10395690;28;20045;-80
2022/01/27 04:49:26;;;;;;;12.73;5.30;;;;;;;;;;10403018;28;20040;-79
2022/01/27 04:54:36;;;;;;;26.80;8.30;;;;;;;;;;10418368;28;20156;-79
2022/01/27 04:59:42;;;;;;;22.30;7.83;;;;;;;;;;10406358;28;20037;-77
2022/01/27 05:04:49;;;;;;;30.93;9.53;;;;;;;;;;10405599;28;20129;-79
2022/01/27 05:10:14;;;;;;;23.33;8.60;;;;;;;;;;10396184;28;20129;-80
2022/01/27 05:15:24;;;;;;;16.03;5.70;;;;;;;;;;10428970;28;20049;-80
2022/01/27 05:20:27;;;;;;;27.50;7.13;;;;;;;;;;10409850;28;20038;-80
2022/01/27 05:25:32;;;;;;;32.03;11.23;;;;;;;;;;10416648;28;20053;-78
2022/01/27 05:30:35;;;;;;;35.77;9.67;;;;;;;;;;10406962;28;20061;-79
2022/01/27 05:35:39;;;;;;;24.13;9.73;;;;;;;;;;10420713;28;20041;-79
2022/01/27 05:40:43;;;;;;;36.73;12.57;;;;;;;;;;10407274;28;20303;-79
2022/01/27 05:45:46;;;;;;;35.50;10.50;;;;;;;;;;10390930;28;20041;-79
2022/01/27 05:50:49;;;;;;;18.00;5.03;;;;;;;;;;10405728;28;20039;-80
2022/01/27 05:55:54;;;;;;;38.22;12.77;;;;;;;;;;10394438;28;20462;-79
2022/01/27 06:00:57;;;;;;;;;;;;;;;;;;10413928;28;20107;-78
2022/01/27 06:06:00;;;;;;;16.07;6.30;;;;;;;;;;10406464;28;20399;-79
2022/01/27 06:11:06;;;;;;;16.43;4.37;;;;;;;;;;10425905;28;20080;-75
2022/01/27 06:16:11;;;;;;;41.67;11.23;;;;;;;;;;10438522;28;20311;-78
2022/01/27 06:21:17;;;;;;;31.20;8.80;;;;;;;;;;10433234;28;20040;-77
2022/01/27 06:26:22;;;;;;;18.10;6.57;;;;;;;;;;10420126;28;20041;-81
2022/01/27 06:31:26;;;;;;;17.10;6.20;;;;;;;;;;10430271;28;20378;-81
2022/01/27 06:36:29;;;;;;;15.97;6.63;;;;;;;;;;10414595;28;20045;-81
2022/01/27 06:41:34;;;;;;;22.33;8.27;;;;;;;;;;10410802;28;20041;-81
2022/01/27 06:46:36;;;;;;;;;;;;;;;;;;10424113;28;20370;-80
2022/01/27 06:51:39;;;;;;;13.87;5.10;;;;;;;;;;10407596;28;19932;-78
2022/01/27 06:56:44;;;;;;;12.10;5.60;;;;;;;;;;10421507;28;20054;-78
2022/01/27 07:01:47;;;;;;;19.47;7.77;;;;;;;;;;10415000;28;20041;-81
2022/01/27 07:06:52;;;;;;;11.37;5.57;;;;;;;;;;10432677;28;20041;-81
2022/01/27 07:11:56;;;;;;;18.87;6.63;;;;;;;;;;10437134;28;20140;-80
2022/01/27 07:16:59;;;;;;;;;;;;;;;;;;10438549;28;20113;-79
2022/01/27 07:22:02;;;;;;;27.53;10.63;;;;;;;;;;10436126;28;19921;-77
2022/01/27 07:27:07;;;;;;;9.10;4.27;;;;;;;;;;10430679;28;20041;-80
2022/01/27 07:32:10;;;;;;;16.53;6.30;;;;;;;;;;10434386;28;20068;-79
2022/01/27 07:37:19;;;;;;;10.70;4.40;;;;;;;;;;10438732;28;20029;-79
2022/01/27 07:42:24;;;;;;;17.42;4.43;;;;;;;;;;10410936;28;20422;-77
2022/01/27 07:47:27;;;;;;;15.03;5.60;;;;;;;;;;10435875;28;20029;-76
2022/01/27 07:52:30;;;;;;;15.90;6.40;;;;;;;;;;10441192;28;20033;-78
2022/01/27 07:57:39;;;;;;;17.83;6.55;;;;;;;;;;10433293;28;20038;-77
2022/01/27 08:02:43;;;;;;;21.15;9.07;;;;;;;;;;10441941;28;20238;-76
2022/01/27 08:07:47;;;;;;;22.42;9.20;;;;;;;;;;10422222;28;20125;-76
2022/01/27 08:12:51;;;;;;;20.97;9.47;;;;;;;;;;10442874;28;20278;-77
2022/01/27 08:17:54;;;;;;;16.20;7.05;;;;;;;;;;10411597;28;20041;-77
2022/01/27 08:22:58;;;;;;;15.07;7.35;;;;;;;;;;10430596;28;20541;-77
2022/01/27 08:28:04;;;;;;;;;;;;;;;;;;10431598;28;20041;-77
2022/01/27 08:33:14;;;;;;;15.43;6.78;;;;;;;;;;10427509;28;19984;-77
2022/01/27 08:38:18;;;;;;;13.43;5.40;;;;;;;;;;10438560;28;20041;-77
2022/01/27 08:43:22;;;;;;;15.60;7.57;;;;;;;;;;10421700;28;20041;-79
2022/01/27 08:48:28;;;;;;;17.85;8.07;;;;;;;;;;10430437;28;20041;-78
2022/01/27 08:53:39;;;;;;;14.82;6.85;;;;;;;;;;10426527;28;20040;-78
2022/01/27 08:58:43;;;;;;;15.48;7.32;;;;;;;;;;10409556;28;20095;-79
2022/01/27 09:03:49;;;;;;;15.40;6.53;;;;;;;;;;10406096;28;20041;-81
2022/01/27 09:08:54;;;;;;;16.67;7.90;;;;;;;;;;10409453;28;20048;-78
2022/01/27 09:13:57;;;;;;;11.88;5.18;;;;;;;;;;10433094;28;20041;-79
2022/01/27 09:19:03;;;;;;;11.77;6.22;;;;;;;;;;10436455;28;20049;-78
2022/01/27 09:24:13;;;;;;;13.13;6.78;;;;;;;;;;10422314;28;20124;-77
2022/01/27 09:29:16;;;;;;;15.38;7.15;;;;;;;;;;10425378;28;20037;-79
2022/01/27 09:34:21;;;;;;;14.73;5.65;;;;;;;;;;10436156;28;20041;-80
2022/01/27 09:39:25;;;;;;;11.00;4.90;;;;;;;;;;10414852;28;20045;-79
2022/01/27 09:44:29;;;;;;;;;;;;;;;;;;10432290;28;20030;-79
2022/01/27 09:49:38;;;;;;;8.23;4.03;;;;;;;;;;10437849;28;19929;-76
2022/01/27 09:54:41;;;;;;;7.75;4.10;;;;;;;;;;10433261;28;20034;-78
2022/01/27 09:59:44;;;;;;;6.65;3.33;;;;;;;;;;10431109;28;20072;-79
2022/01/27 10:04:49;;;;;;;9.25;4.18;;;;;;;;;;10435604;28;20064;-79
2022/01/27 10:09:56;;;;;;;7.53;3.70;;;;;;;;;;10431342;28;20041;-78
2022/01/27 10:15:01;;;;;;;6.93;3.28;;;;;;;;;;10432154;28;20033;-77
2022/01/27 10:20:14;;;;;;;5.07;3.10;;;;;;;;;;10434835;28;20046;-78
2022/01/27 10:25:21;;;;;;;;;;;;;;;;;;10425218;28;20033;-77
2022/01/27 10:35:51;;;;;;;4.18;2.60;;;;;;;;;;10410425;28;20075;-78
2022/01/27 10:40:54;;;;;;;6.03;2.50;;;;;;;;;;10424020;28;20041;-79
2022/01/27 10:46:06;;;;;;;5.32;2.85;;;;;;;;;;10432107;28;20045;-78
2022/01/27 10:51:16;;;;;;;3.58;2.25;;;;;;;;;;10411308;28;20390;-79
2022/01/27 10:56:21;;;;;;;4.18;1.88;;;;;;;;;;10426801;28;20046;-78
2022/01/27 11:01:25;;;;;;;2.75;1.45;;;;;;;;;;10428873;28;20025;-77
2022/01/27 11:06:32;;;;;;;4.13;2.58;;;;;;;;;;10435347;28;20060;-78
2022/01/27 11:11:38;;;;;;;5.35;2.33;;;;;;;;;;10425383;28;20053;-78
2022/01/27 11:16:43;;;;;;;2.55;1.77;;;;;;;;;;10401484;28;20045;-76
2022/01/27 11:21:53;;;;;;;2.50;1.90;;;;;;;;;;10411700;28;20041;-80
2022/01/27 11:26:58;;;;;;;4.20;2.35;;;;;;;;;;10420572;28;20052;-77
2022/01/27 11:32:18;;;;;;;3.55;2.30;;;;;;;;;;10413067;28;20486;-77
2022/01/27 11:37:32;;;;;;;6.72;3.13;;;;;;;;;;10417368;28;20045;-78
2022/01/27 11:43:01;;;;;;;4.15;2.60;;;;;;;;;;10416142;28;20101;-77
2022/01/27 11:48:10;;;;;;;8.43;3.70;;;;;;;;;;10414554;28;20644;-78
2022/01/27 11:53:27;;;;;;;8.18;3.70;;;;;;;;;;10415186;28;20100;-78
2022/01/27 11:58:32;;;;;;;5.00;3.20;;;;;;;;;;10411582;28;20041;-77
2022/01/27 12:03:36;;;;;;;4.80;2.38;;;;;;;;;;10388827;28;20464;-75
2022/01/27 12:08:40;;;;;;;5.03;2.42;;;;;;;;;;10400485;28;20033;-77
2022/01/27 12:14:03;;;;;;;5.30;2.55;;;;;;;;;;10402265;28;20401;-78
2022/01/27 12:19:08;;;;;;;5.57;3.20;;;;;;;;;;10392995;28;20136;-76
2022/01/27 12:24:22;;;;;;;5.85;3.42;;;;;;;;;;10400050;28;20040;-77
2022/01/27 12:29:29;;;;;;;6.20;3.50;;;;;;;;;;10395973;28;20374;-78
2022/01/27 12:34:33;;;;;;;9.55;3.83;;;;;;;;;;10402496;28;20029;-76
2022/01/27 12:39:38;;;;;;;6.88;4.07;;;;;;;;;;10401823;28;20136;-77
2022/01/27 12:44:52;;;;;;;9.55;4.65;;;;;;;;;;10404726;28;20033;-77
2022/01/27 12:50:04;;;;;;;8.25;5.10;;;;;;;;;;10410326;28;20041;-78
2022/01/27 12:55:10;;;;;;;7.80;4.53;;;;;;;;;;10393393;28;20053;-77
2022/01/27 13:00:20;;;;;;;;;;;;;;;;;;10410230;28;20405;-77
2022/01/27 13:05:23;;;;;;;10.53;5.23;;;;;;;;;;10410723;28;19925;-77
2022/01/27 13:10:28;;;;;;;11.02;5.88;;;;;;;;;;10396357;28;20739;-77
2022/01/27 13:15:31;;;;;;;12.68;5.88;;;;;;;;;;10402856;28;20041;-77
2022/01/27 13:20:37;;;;;;;11.07;5.80;;;;;;;;;;10414126;28;20152;-77
2022/01/27 13:25:43;;;;;;;12.13;5.35;;;;;;;;;;10422925;28;20153;-76
2022/01/27 13:30:47;;;;;;;11.82;5.65;;;;;;;;;;10416881;28;20030;-78
2022/01/27 13:35:51;;;;;;;13.45;6.05;;;;;;;;;;10418212;28;20068;-77
2022/01/27 13:41:31;;;;;;;10.68;5.90;;;;;;;;;;10404957;28;20569;-77
2022/01/27 13:46:34;;;;;;;12.50;5.82;;;;;;;;;;10417677;28;20148;-78
2022/01/27 13:51:52;;;;;;;8.35;4.68;;;;;;;;;;10414767;28;20792;-78
2022/01/27 13:56:57;;;;;;;13.40;5.43;;;;;;;;;;10429420;28;20061;-78
2022/01/27 14:02:15;;;;;;;15.38;6.38;;;;;;;;;;10404095;28;20545;-79
2022/01/27 14:07:25;;;;;;;12.48;5.22;;;;;;;;;;10418514;28;20063;-79
2022/01/27 14:12:44;;;;;;;10.75;3.85;;;;;;;;;;10416207;28;20430;-79
2022/01/27 14:17:55;;;;;;;8.98;3.50;;;;;;;;;;10395535;28;20063;-78
2022/01/27 14:23:03;;;;;;;15.55;5.80;;;;;;;;;;10407549;28;20044;-76
2022/01/27 14:28:11;;;;;;;15.00;5.45;;;;;;;;;;10406384;28;20033;-76
2022/01/27 14:33:14;;;;;;;15.57;6.15;;;;;;;;;;10411748;28;20038;-79
2022/01/27 14:38:18;;;;;;;4.90;2.60;;;;;;;;;;10408768;28;20042;-77
2022/01/27 14:43:24;;;;;;;10.07;4.25;;;;;;;;;;10406902;28;20660;-77
2022/01/27 14:48:30;;;;;;;9.85;2.67;;;;;;;;;;10401002;28;20065;-76
2022/01/27 14:53:33;;;;;;;18.33;7.13;;;;;;;;;;10409373;28;20494;-76
2022/01/27 14:58:38;;;;;;;15.17;5.07;;;;;;;;;;10401890;28;20044;-76
2022/01/27 15:03:41;;;;;;;10.13;3.38;;;;;;;;;;10402274;28;20029;-77
2022/01/27 15:08:44;;;;;;;6.10;2.67;;;;;;;;;;10404472;28;20041;-77
2022/01/27 15:13:58;;;;;;;6.33;2.67;;;;;;;;;;10396897;28;20080;-78
2022/01/27 15:19:08;;;;;;;13.25;4.63;;;;;;;;;;10386169;28;20095;-77
2022/01/27 15:24:14;;;;;;;7.10;3.70;;;;;;;;;;10400529;28;20112;-76
2022/01/27 15:29:18;;;;;;;9.30;3.83;;;;;;;;;;10399026;28;20398;-77
2022/01/27 15:34:23;;;;;;;8.90;3.40;;;;;;;;;;10401035;28;20033;-76
2022/01/27 15:39:27;;;;;;;14.77;5.33;;;;;;;;;;10383922;28;20053;-77
2022/01/27 15:44:31;;;;;;;13.53;4.90;;;;;;;;;;10384220;28;20044;-76
2022/01/27 15:49:34;;;;;;;15.03;3.90;;;;;;;;;;10397537;28;20042;-76
2022/01/27 15:54:38;;;;;;;9.43;3.67;;;;;;;;;;10386003;28;20124;-77
2022/01/27 15:59:46;;;;;;;6.50;2.93;;;;;;;;;;10403236;28;20033;-76
2022/01/27 16:04:49;;;;;;;10.27;4.40;;;;;;;;;;10401754;28;20030;-76
2022/01/27 16:09:52;;;;;;;12.03;3.23;;;;;;;;;;10387139;28;20037;-75
2022/01/27 16:14:56;;;;;;;11.87;3.43;;;;;;;;;;10403269;28;20037;-76
2022/01/27 16:19:59;;;;;;;8.77;3.07;;;;;;;;;;10402332;28;20439;-77
2022/01/27 16:25:02;;;;;;;8.80;3.63;;;;;;;;;;10401404;28;20040;-78
2022/01/27 16:30:08;;;;;;;11.20;4.13;;;;;;;;;;10403319;28;20167;-77
2022/01/27 16:35:11;;;;;;;9.63;3.97;;;;;;;;;;10403169;28;20041;-78
2022/01/27 16:40:14;;;;;;;7.57;3.40;;;;;;;;;;10404038;28;20038;-76
2022/01/27 16:45:20;;;;;;;8.00;3.63;;;;;;;;;;10398148;28;20044;-77
2022/01/27 16:50:23;;;;;;;;;;;;;;;;;;10390090;28;20049;-78
2022/01/27 16:55:26;;;;;;;7.37;2.93;;;;;;;;;;10386021;28;19929;-77
2022/01/27 17:00:30;;;;;;;9.50;3.97;;;;;;;;;;10413551;28;20120;-76
2022/01/27 17:05:33;;;;;;;5.67;2.70;;;;;;;;;;10406912;28;20041;-79
2022/01/27 17:10:37;;;;;;;13.25;5.07;;;;;;;;;;10400629;28;20167;-76
2022/01/27 17:15:42;;;;;;;18.87;4.83;;;;;;;;;;10406678;28;20049;-77
2022/01/27 17:20:45;;;;;;;4.63;2.00;;;;;;;;;;10420208;28;20150;-77
2022/01/27 17:25:49;;;;;;;9.70;3.42;;;;;;;;;;10422939;28;20041;-76
2022/01/27 17:30:53;;;;;;;8.20;3.60;;;;;;;;;;10420175;28;20029;-79
2022/01/27 17:35:56;;;;;;;;;;;;;;;;;;10404886;28;20121;-76
2022/01/27 17:41:00;;;;;;;10.03;3.63;;;;;;;;;;10411211;28;20015;-77
2022/01/27 17:46:05;;;;;;;18.60;6.37;;;;;;;;;;10415771;28;20037;-77
2022/01/27 17:51:08;;;;;;;19.37;6.80;;;;;;;;;;10397160;28;20124;-78
2022/01/27 17:56:11;;;;;;;10.37;3.40;;;;;;;;;;10407055;28;20232;-75
2022/01/27 18:01:15;;;;;;;15.10;4.77;;;;;;;;;;10398838;28;20132;-75
2022/01/27 18:06:20;;;;;;;13.30;5.63;;;;;;;;;;10409409;28;20044;-78
2022/01/27 18:11:26;;;;;;;12.03;4.83;;;;;;;;;;10404301;28;20072;-77
2022/01/27 18:16:31;;;;;;;10.60;4.10;;;;;;;;;;10419995;28;20391;-76
2022/01/27 18:21:34;;;;;;;17.33;4.70;;;;;;;;;;10415475;28;20067;-77
2022/01/27 18:26:37;;;;;;;11.17;4.83;;;;;;;;;;10403922;28;20068;-76
2022/01/27 18:31:41;;;;;;;11.33;4.27;;;;;;;;;;10414551;28;20079;-76
2022/01/27 18:36:44;;;;;;;13.63;5.33;;;;;;;;;;10410649;28;20033;-76
2022/01/27 18:41:47;;;;;;;6.80;2.83;;;;;;;;;;10420321;28;20030;-78
2022/01/27 18:46:52;;;;;;;11.53;4.03;;;;;;;;;;10410288;28;20509;-78
2022/01/27 18:51:56;;;;;;;10.40;3.97;;;;;;;;;;10403530;28;20053;-76
2022/01/27 18:56:59;;;;;;;10.03;3.90;;;;;;;;;;10417274;28;20052;-78
2022/01/27 19:02:05;;;;;;;7.47;3.75;;;;;;;;;;10429894;28;20470;-79
2022/01/27 19:07:08;;;;;;;8.83;2.80;;;;;;;;;;10413965;28;20064;-78
2022/01/27 19:12:11;;;;;;;4.90;2.07;;;;;;;;;;10412790;28;20489;-77
2022/01/27 19:17:16;;;;;;;8.90;3.22;;;;;;;;;;10407540;28;20051;-77
2022/01/27 19:22:19;;;;;;;;;;;;;;;;;;10404873;28;20041;-77
2022/01/27 19:27:23;;;;;;;6.47;3.40;;;;;;;;;;10415837;28;20041;-78
2022/01/27 19:32:28;;;;;;;8.43;3.13;;;;;;;;;;10408096;28;20664;-77
2022/01/27 19:37:31;;;;;;;16.90;7.27;;;;;;;;;;10408900;28;20124;-77
2022/01/27 19:42:34;;;;;;;9.03;3.10;;;;;;;;;;10408621;28;20046;-77
2022/01/27 19:47:39;;;;;;;5.70;1.97;;;;;;;;;;10403352;28;20539;-76
2022/01/27 19:52:49;;;;;;;10.37;4.57;;;;;;;;;;10401877;28;20048;-78
2022/01/27 19:57:52;;;;;;;10.80;4.07;;;;;;;;;;10410548;28;20103;-80
2022/01/27 20:02:58;;;;;;;9.88;3.53;;;;;;;;;;10422839;28;20044;-79
2022/01/27 20:08:02;;;;;;;14.83;5.33;;;;;;;;;;10410221;28;20037;-80
2022/01/27 20:13:06;;;;;;;10.68;4.45;;;;;;;;;;10410986;28;20111;-79
2022/01/27 20:18:11;;;;;;;6.22;3.13;;;;;;;;;;10412964;28;20073;-79
2022/01/27 20:23:14;;;;;;;10.23;3.73;;;;;;;;;;10410607;28;20060;-79
2022/01/27 20:28:23;;;;;;;9.43;3.83;;;;;;;;;;10411106;28;20087;-77
2022/01/27 20:33:27;;;;;;;10.97;4.17;;;;;;;;;;10410485;28;20038;-77
2022/01/27 20:38:30;;;;;;;8.70;3.40;;;;;;;;;;10406711;28;20046;-77
2022/01/27 20:43:33;;;;;;;16.80;7.93;;;;;;;;;;10403672;28;20478;-76
2022/01/27 20:48:38;;;;;;;7.17;2.37;;;;;;;;;;10407005;28;20095;-77
2022/01/27 20:53:46;;;;;;;16.37;6.83;;;;;;;;;;10417729;28;20103;-79
2022/01/27 20:58:50;;;;;;;10.87;4.67;;;;;;;;;;10422969;28;20084;-80
2022/01/27 21:03:55;;;;;;;8.00;3.30;;;;;;;;;;10426374;28;20086;-80
2022/01/27 21:08:57;;;;;;;8.27;2.67;;;;;;;;;;10421710;28;20057;-78
2022/01/27 21:14:00;;;;;;;4.43;2.67;;;;;;;;;;10415610;28;20030;-78
2022/01/27 21:19:05;;;;;;;6.67;2.37;;;;;;;;;;10411965;28;20092;-80
2022/01/27 21:24:10;;;;;;;8.10;3.07;;;;;;;;;;10406770;28;20049;-78
2022/01/27 21:29:13;;;;;;;11.23;5.53;;;;;;;;;;10426028;28;20038;-79
2022/01/27 21:34:26;;;;;;;10.83;3.80;;;;;;;;;;10394841;28;20042;-77
2022/01/27 21:39:29;;;;;;;8.33;2.47;;;;;;;;;;10401698;28;20041;-77
2022/01/27 21:44:32;;;;;;;4.93;2.10;;;;;;;;;;10421847;28;20037;-78
2022/01/27 21:49:37;;;;;;;6.07;2.33;;;;;;;;;;10407394;28;20506;-77
2022/01/27 21:54:41;;;;;;;4.53;1.80;;;;;;;;;;10412032;28;20049;-77
2022/01/27 21:59:44;;;;;;;9.70;4.20;;;;;;;;;;10427672;28;20041;-79
2022/01/27 22:04:49;;;;;;;3.20;1.65;;;;;;;;;;10435648;28;20044;-77
2022/01/27 22:09:52;;;;;;;1.93;1.20;;;;;;;;;;10425423;28;20094;-77
2022/01/27 22:14:56;;;;;;;3.30;1.53;;;;;;;;;;10442905;28;20076;-78
2022/01/27 22:20:01;;;;;;;7.90;3.15;;;;;;;;;;10443231;28;20033;-78
2022/01/27 22:25:04;;;;;;;5.10;1.97;;;;;;;;;;10437118;28;20033;-77
2022/01/27 22:30:08;;;;;;;4.93;1.93;;;;;;;;;;10410921;28;20052;-77
2022/01/27 22:35:12;;;;;;;4.80;1.88;;;;;;;;;;10410285;28;20033;-75
2022/01/27 22:40:16;;;;;;;4.47;1.90;;;;;;;;;;10390979;28;20378;-77
2022/01/27 22:45:18;;;;;;;4.60;1.57;;;;;;;;;;10408181;28;20033;-77
2022/01/27 22:50:23;;;;;;;5.10;1.87;;;;;;;;;;10414831;28;20248;-78
2022/01/27 22:55:26;;;;;;;7.50;3.30;;;;;;;;;;10409072;28;20041;-76
2022/01/27 23:00:33;;;;;;;4.60;2.20;;;;;;;;;;10401373;28;20041;-76
2022/01/27 23:05:37;;;;;;;7.60;3.00;;;;;;;;;;10405216;28;20397;-76
2022/01/27 23:10:41;;;;;;;3.93;1.80;;;;;;;;;;10410863;28;20048;-78
2022/01/27 23:15:55;;;;;;;5.10;1.88;;;;;;;;;;10420845;28;20037;-77
2022/01/27 23:21:08;;;;;;;6.67;2.50;;;;;;;;;;10410982;28;20037;-77
2022/01/27 23:26:19;;;;;;;3.67;1.90;;;;;;;;;;10416750;28;20040;-77
2022/01/27 23:31:32;;;;;;;6.73;3.20;;;;;;;;;;10428574;28;20097;-78
2022/01/27 23:36:46;;;;;;;5.07;2.50;;;;;;;;;;10447945;28;20253;-79
2022/01/27 23:41:55;;;;;;;7.72;3.78;;;;;;;;;;10446404;28;20235;-79
2022/01/27 23:47:16;;;;;;;4.27;2.43;;;;;;;;;;10433035;28;20067;-79
2022/01/27 23:52:29;;;;;;;4.07;2.20;;;;;;;;;;10447758;28;20041;-76
2022/01/27 23:57:36;;;;;;;7.27;2.93;;;;;;;;;;10449385;28;20045;-78
